sensor_id;sensor_type;location;lat;lon;timestamp;P1;durP1;ratioP1;P2;durP2;ratioP2
1507;SDS011;745;48.586;10.032;2022-11-15T00:01:50;3.07;;;2.77;;
1507;SDS011;745;48.586;10.032;2022-11-15T00:06:21;3.40;;;3.10;;
1507;SDS011;745;48.586;10.032;2022-11-15T00:10:56;2.73;;;2.53;;
1507;SDS011;745;48.586;10.032;2022-11-15T00:15:27;2.70;;;2.50;;
1507;SDS011;745;48.586;10.032;2022-11-15T00:19:58;3.17;;;2.87;;
1507;SDS011;745;48.586;10.032;2022-11-15T00:24:28;2.47;;;2.27;;
1507;SDS011;745;48.586;10.032;2022-11-15T00:28:59;2.60;;;2.40;;
1507;SDS011;745;48.586;10.032;2022-11-15T00:33:29;3.60;;;3.30;;
1507;SDS011;745;48.586;10.032;2022-11-15T00:38:02;3.63;;;3.33;;
1507;SDS011;745;48.586;10.032;2022-11-15T00:42:33;3.30;;;3.00;;
1507;SDS011;745;48.586;10.032;2022-11-15T00:47:03;3.60;;;3.30;;
1507;SDS011;745;48.586;10.032;2022-11-15T00:51:34;4.13;;;3.80;;
1507;SDS011;745;48.586;10.032;2022-11-15T00:56:05;4.10;;;3.63;;
1507;SDS011;745;48.586;10.032;2022-11-15T01:00:35;5.57;;;4.60;;
1507;SDS011;745;48.586;10.032;2022-11-15T01:05:06;5.47;;;4.97;;
1507;SDS011;745;48.586;10.032;2022-11-15T01:09:37;5.67;;;5.17;;
1507;SDS011;745;48.586;10.032;2022-11-15T01:14:07;4.53;;;4.13;;
1507;SDS011;745;48.586;10.032;2022-11-15T01:18:38;6.20;;;5.60;;
1507;SDS011;745;48.586;10.032;2022-11-15T01:23:09;6.20;;;5.33;;
1507;SDS011;745;48.586;10.032;2022-11-15T01:27:39;6.97;;;5.70;;
1507;SDS011;745;48.586;10.032;2022-11-15T01:32:10;6.00;;;5.40;;
1507;SDS011;745;48.586;10.032;2022-11-15T01:36:41;6.10;;;5.50;;
1507;SDS011;745;48.586;10.032;2022-11-15T01:41:18;6.03;;;5.00;;
1507;SDS011;745;48.586;10.032;2022-11-15T01:45:52;4.87;;;4.40;;
1507;SDS011;745;48.586;10.032;2022-11-15T01:50:28;5.23;;;4.47;;
1507;SDS011;745;48.586;10.032;2022-11-15T01:55:08;5.60;;;4.67;;
1507;SDS011;745;48.586;10.032;2022-11-15T01:59:42;5.07;;;4.67;;
1507;SDS011;745;48.586;10.032;2022-11-15T02:04:16;4.47;;;4.10;;
1507;SDS011;745;48.586;10.032;2022-11-15T02:08:50;5.20;;;4.70;;
1507;SDS011;745;48.586;10.032;2022-11-15T02:13:21;5.67;;;5.07;;
1507;SDS011;745;48.586;10.032;2022-11-15T02:18:02;4.60;;;4.17;;
1507;SDS011;745;48.586;10.032;2022-11-15T02:22:45;5.37;;;4.87;;
1507;SDS011;745;48.586;10.032;2022-11-15T02:32:45;4.03;;;3.67;;
1507;SDS011;745;48.586;10.032;2022-11-15T02:42:14;4.10;;;3.67;;
1507;SDS011;745;48.586;10.032;2022-11-15T02:47:08;4.93;;;4.13;;
1507;SDS011;745;48.586;10.032;2022-11-15T02:51:45;5.20;;;4.70;;
1507;SDS011;745;48.586;10.032;2022-11-15T02:56:17;4.83;;;4.33;;
1507;SDS011;745;48.586;10.032;2022-11-15T03:05:34;13.43;;;10.03;;
1507;SDS011;745;48.586;10.032;2022-11-15T03:10:06;10.70;;;9.40;;
1507;SDS011;745;48.586;10.032;2022-11-15T03:19:48;9.10;;;8.20;;
1507;SDS011;745;48.586;10.032;2022-11-15T03:24:20;13.37;;;11.50;;
1507;SDS011;745;48.586;10.032;2022-11-15T03:28:56;11.63;;;10.37;;
1507;SDS011;745;48.586;10.032;2022-11-15T03:33:31;11.33;;;10.20;;
1507;SDS011;745;48.586;10.032;2022-11-15T03:38:23;10.03;;;9.03;;
1507;SDS011;745;48.586;10.032;2022-11-15T03:43:00;10.30;;;8.90;;
1507;SDS011;745;48.586;10.032;2022-11-15T03:52:12;7.50;;;6.70;;
1507;SDS011;745;48.586;10.032;2022-11-15T03:56:42;7.30;;;6.27;;
1507;SDS011;745;48.586;10.032;2022-11-15T04:01:13;6.87;;;6.27;;
1507;SDS011;745;48.586;10.032;2022-11-15T04:05:43;7.50;;;6.17;;
1507;SDS011;745;48.586;10.032;2022-11-15T04:10:14;7.23;;;6.53;;
1507;SDS011;745;48.586;10.032;2022-11-15T04:14:44;5.97;;;5.40;;
1507;SDS011;745;48.586;10.032;2022-11-15T04:19:35;6.17;;;5.67;;
1507;SDS011;745;48.586;10.032;2022-11-15T04:24:24;6.17;;;5.57;;
1507;SDS011;745;48.586;10.032;2022-11-15T04:28:54;6.40;;;5.80;;
1507;SDS011;745;48.586;10.032;2022-11-15T04:33:43;7.90;;;7.10;;
1507;SDS011;745;48.586;10.032;2022-11-15T04:38:13;7.70;;;6.50;;
1507;SDS011;745;48.586;10.032;2022-11-15T04:42:44;8.53;;;7.73;;
1507;SDS011;745;48.586;10.032;2022-11-15T04:47:14;8.70;;;7.80;;
1507;SDS011;745;48.586;10.032;2022-11-15T04:51:44;9.80;;;8.80;;
1507;SDS011;745;48.586;10.032;2022-11-15T04:56:15;11.13;;;9.60;;
1507;SDS011;745;48.586;10.032;2022-11-15T05:00:45;9.83;;;8.83;;
1507;SDS011;745;48.586;10.032;2022-11-15T05:05:16;9.33;;;8.07;;
1507;SDS011;745;48.586;10.032;2022-11-15T05:09:47;10.57;;;9.37;;
1507;SDS011;745;48.586;10.032;2022-11-15T05:14:17;11.30;;;9.80;;
1507;SDS011;745;48.586;10.032;2022-11-15T05:18:50;11.23;;;10.03;;
1507;SDS011;745;48.586;10.032;2022-11-15T05:23:22;10.03;;;8.43;;
1507;SDS011;745;48.586;10.032;2022-11-15T05:27:52;10.50;;;9.40;;
1507;SDS011;745;48.586;10.032;2022-11-15T05:32:23;11.27;;;10.17;;
1507;SDS011;745;48.586;10.032;2022-11-15T05:36:53;11.00;;;9.90;;
1507;SDS011;745;48.586;10.032;2022-11-15T05:41:26;10.97;;;9.73;;
1507;SDS011;745;48.586;10.032;2022-11-15T05:46:19;10.17;;;8.97;;
1507;SDS011;745;48.586;10.032;2022-11-15T05:50:50;10.00;;;9.00;;
1507;SDS011;745;48.586;10.032;2022-11-15T05:55:20;13.10;;;10.77;;
1507;SDS011;745;48.586;10.032;2022-11-15T05:59:51;12.10;;;10.20;;
1507;SDS011;745;48.586;10.032;2022-11-15T06:04:21;12.80;;;11.00;;
1507;SDS011;745;48.586;10.032;2022-11-15T06:08:52;11.40;;;10.30;;
1507;SDS011;745;48.586;10.032;2022-11-15T06:13:22;11.83;;;10.20;;
1507;SDS011;745;48.586;10.032;2022-11-15T06:17:56;13.17;;;11.43;;
1507;SDS011;745;48.586;10.032;2022-11-15T06:22:27;16.20;;;13.30;;
1507;SDS011;745;48.586;10.032;2022-11-15T06:26:58;20.20;;;16.27;;
1507;SDS011;745;48.586;10.032;2022-11-15T06:31:29;21.00;;;16.20;;
1507;SDS011;745;48.586;10.032;2022-11-15T06:36:00;20.47;;;14.87;;
1507;SDS011;745;48.586;10.032;2022-11-15T06:40:35;20.60;;;16.20;;
1507;SDS011;745;48.586;10.032;2022-11-15T06:45:07;20.13;;;15.30;;
1507;SDS011;745;48.586;10.032;2022-11-15T06:49:38;19.07;;;13.97;;
1507;SDS011;745;48.586;10.032;2022-11-15T06:54:09;15.83;;;12.50;;
1507;SDS011;745;48.586;10.032;2022-11-15T06:58:39;12.83;;;10.60;;
1507;SDS011;745;48.586;10.032;2022-11-15T07:03:10;10.53;;;9.40;;
1507;SDS011;745;48.586;10.032;2022-11-15T07:07:40;11.30;;;9.53;;
1507;SDS011;745;48.586;10.032;2022-11-15T07:12:11;10.63;;;9.53;;
1507;SDS011;745;48.586;10.032;2022-11-15T07:16:42;12.33;;;10.87;;
1507;SDS011;745;48.586;10.032;2022-11-15T07:21:12;12.57;;;10.77;;
1507;SDS011;745;48.586;10.032;2022-11-15T07:25:45;11.50;;;10.27;;
1507;SDS011;745;48.586;10.032;2022-11-15T07:30:16;8.53;;;7.63;;
1507;SDS011;745;48.586;10.032;2022-11-15T07:34:47;8.80;;;7.70;;
1507;SDS011;745;48.586;10.032;2022-11-15T07:39:17;9.37;;;8.40;;
1507;SDS011;745;48.586;10.032;2022-11-15T07:43:50;9.50;;;8.60;;
1507;SDS011;745;48.586;10.032;2022-11-15T07:48:22;7.90;;;7.10;;
1507;SDS011;745;48.586;10.032;2022-11-15T07:52:53;7.60;;;6.90;;
1507;SDS011;745;48.586;10.032;2022-11-15T07:57:25;7.63;;;6.93;;
1507;SDS011;745;48.586;10.032;2022-11-15T08:01:55;7.30;;;6.60;;
1507;SDS011;745;48.586;10.032;2022-11-15T08:06:26;7.83;;;7.10;;
1507;SDS011;745;48.586;10.032;2022-11-15T08:10:59;5.77;;;5.27;;
1507;SDS011;745;48.586;10.032;2022-11-15T08:15:30;7.00;;;6.03;;
1507;SDS011;745;48.586;10.032;2022-11-15T08:20:01;6.60;;;6.00;;
1507;SDS011;745;48.586;10.032;2022-11-15T08:24:33;7.37;;;6.67;;
1507;SDS011;745;48.586;10.032;2022-11-15T08:29:04;7.80;;;7.10;;
1507;SDS011;745;48.586;10.032;2022-11-15T08:33:34;8.83;;;7.57;;
1507;SDS011;745;48.586;10.032;2022-11-15T08:38:05;7.80;;;6.87;;
1507;SDS011;745;48.586;10.032;2022-11-15T08:42:36;7.73;;;6.67;;
1507;SDS011;745;48.586;10.032;2022-11-15T08:47:07;6.67;;;6.00;;
1507;SDS011;745;48.586;10.032;2022-11-15T08:51:37;5.60;;;5.10;;
1507;SDS011;745;48.586;10.032;2022-11-15T08:56:08;7.27;;;6.57;;
1507;SDS011;745;48.586;10.032;2022-11-15T09:00:40;6.03;;;5.43;;
1507;SDS011;745;48.586;10.032;2022-11-15T09:05:10;5.83;;;5.33;;
1507;SDS011;745;48.586;10.032;2022-11-15T09:09:41;7.47;;;6.60;;
1507;SDS011;745;48.586;10.032;2022-11-15T09:14:12;7.00;;;5.90;;
1507;SDS011;745;48.586;10.032;2022-11-15T09:18:43;8.47;;;7.67;;
1507;SDS011;745;48.586;10.032;2022-11-15T09:23:14;8.40;;;7.50;;
1507;SDS011;745;48.586;10.032;2022-11-15T09:27:44;9.93;;;7.90;;
1507;SDS011;745;48.586;10.032;2022-11-15T09:32:14;9.53;;;8.63;;
1507;SDS011;745;48.586;10.032;2022-11-15T09:36:45;8.87;;;8.03;;
1507;SDS011;745;48.586;10.032;2022-11-15T09:50:44;8.73;;;7.67;;
1507;SDS011;745;48.586;10.032;2022-11-15T09:55:19;9.50;;;8.60;;
1507;SDS011;745;48.586;10.032;2022-11-15T10:04:51;10.00;;;9.00;;
1507;SDS011;745;48.586;10.032;2022-11-15T10:09:26;9.60;;;8.70;;
1507;SDS011;745;48.586;10.032;2022-11-15T10:14:05;9.57;;;8.30;;
1507;SDS011;745;48.586;10.032;2022-11-15T10:23:39;9.43;;;8.50;;
1507;SDS011;745;48.586;10.032;2022-11-15T10:28:17;8.93;;;7.77;;
1507;SDS011;745;48.586;10.032;2022-11-15T10:32:51;7.53;;;6.40;;
1507;SDS011;745;48.586;10.032;2022-11-15T10:37:31;6.37;;;5.77;;
1507;SDS011;745;48.586;10.032;2022-11-15T10:42:15;6.07;;;5.47;;
1507;SDS011;745;48.586;10.032;2022-11-15T10:47:03;6.10;;;5.50;;
1507;SDS011;745;48.586;10.032;2022-11-15T10:56:42;5.73;;;5.20;;
1507;SDS011;745;48.586;10.032;2022-11-15T11:01:14;5.20;;;4.80;;
1507;SDS011;745;48.586;10.032;2022-11-15T11:05:46;5.53;;;5.03;;
1507;SDS011;745;48.586;10.032;2022-11-15T11:10:18;6.30;;;5.27;;
1507;SDS011;745;48.586;10.032;2022-11-15T11:14:50;6.30;;;5.60;;
1507;SDS011;745;48.586;10.032;2022-11-15T11:24:09;5.87;;;5.27;;
1507;SDS011;745;48.586;10.032;2022-11-15T11:33:44;5.63;;;5.03;;
1507;SDS011;745;48.586;10.032;2022-11-15T11:48:12;4.57;;;4.17;;
1507;SDS011;745;48.586;10.032;2022-11-15T12:02:08;4.30;;;3.90;;
1507;SDS011;745;48.586;10.032;2022-11-15T12:16:23;5.47;;;4.97;;
1507;SDS011;745;48.586;10.032;2022-11-15T12:21:01;6.40;;;5.80;;
1507;SDS011;745;48.586;10.032;2022-11-15T12:25:39;6.17;;;5.67;;
1507;SDS011;745;48.586;10.032;2022-11-15T12:30:16;6.37;;;5.77;;
1507;SDS011;745;48.586;10.032;2022-11-15T12:34:49;4.80;;;4.40;;
1507;SDS011;745;48.586;10.032;2022-11-15T12:39:20;3.43;;;3.13;;
1507;SDS011;745;48.586;10.032;2022-11-15T12:43:51;3.73;;;3.40;;
1507;SDS011;745;48.586;10.032;2022-11-15T12:57:54;4.60;;;4.07;;
1507;SDS011;745;48.586;10.032;2022-11-15T13:02:26;4.10;;;3.63;;
1507;SDS011;745;48.586;10.032;2022-11-15T13:07:00;5.13;;;4.43;;
1507;SDS011;745;48.586;10.032;2022-11-15T13:11:41;4.40;;;4.00;;
1507;SDS011;745;48.586;10.032;2022-11-15T13:16:18;5.13;;;4.23;;
1507;SDS011;745;48.586;10.032;2022-11-15T13:20:50;4.20;;;3.80;;
1507;SDS011;745;48.586;10.032;2022-11-15T13:30:13;3.63;;;3.33;;
1507;SDS011;745;48.586;10.032;2022-11-15T13:34:46;4.57;;;3.80;;
1507;SDS011;745;48.586;10.032;2022-11-15T13:43:58;4.43;;;4.03;;
1507;SDS011;745;48.586;10.032;2022-11-15T13:48:29;4.47;;;3.93;;
1507;SDS011;745;48.586;10.032;2022-11-15T13:53:00;5.60;;;5.10;;
1507;SDS011;745;48.586;10.032;2022-11-15T13:57:41;5.57;;;5.00;;
1507;SDS011;745;48.586;10.032;2022-11-15T14:02:14;6.37;;;5.77;;
1507;SDS011;745;48.586;10.032;2022-11-15T14:06:48;7.50;;;6.80;;
1507;SDS011;745;48.586;10.032;2022-11-15T14:11:20;6.53;;;5.93;;
1507;SDS011;745;48.586;10.032;2022-11-15T14:15:50;7.73;;;6.97;;
1507;SDS011;745;48.586;10.032;2022-11-15T14:20:28;7.10;;;6.40;;
1507;SDS011;745;48.586;10.032;2022-11-15T14:25:16;8.17;;;7.47;;
1507;SDS011;745;48.586;10.032;2022-11-15T14:29:51;7.33;;;6.63;;
1507;SDS011;745;48.586;10.032;2022-11-15T14:34:23;10.00;;;9.00;;
1507;SDS011;745;48.586;10.032;2022-11-15T14:38:53;9.10;;;8.20;;
1507;SDS011;745;48.586;10.032;2022-11-15T14:43:24;9.83;;;8.40;;
1507;SDS011;745;48.586;10.032;2022-11-15T14:47:55;10.77;;;8.70;;
1507;SDS011;745;48.586;10.032;2022-11-15T14:52:29;10.73;;;9.63;;
1507;SDS011;745;48.586;10.032;2022-11-15T14:57:03;9.87;;;8.97;;
1507;SDS011;745;48.586;10.032;2022-11-15T15:01:33;10.77;;;9.33;;
1507;SDS011;745;48.586;10.032;2022-11-15T15:06:04;14.37;;;10.47;;
1507;SDS011;745;48.586;10.032;2022-11-15T15:10:39;13.13;;;11.73;;
1507;SDS011;745;48.586;10.032;2022-11-15T15:15:12;12.53;;;10.70;;
1507;SDS011;745;48.586;10.032;2022-11-15T15:19:45;13.37;;;10.87;;
1507;SDS011;745;48.586;10.032;2022-11-15T15:24:15;12.00;;;10.70;;
1507;SDS011;745;48.586;10.032;2022-11-15T15:28:46;15.60;;;11.43;;
1507;SDS011;745;48.586;10.032;2022-11-15T15:33:18;11.80;;;10.60;;
1507;SDS011;745;48.586;10.032;2022-11-15T15:37:49;12.43;;;10.80;;
1507;SDS011;745;48.586;10.032;2022-11-15T15:42:21;12.80;;;11.00;;
1507;SDS011;745;48.586;10.032;2022-11-15T15:46:52;15.23;;;12.87;;
1507;SDS011;745;48.586;10.032;2022-11-15T15:51:22;14.10;;;11.00;;
1507;SDS011;745;48.586;10.032;2022-11-15T15:55:53;11.07;;;9.97;;
1507;SDS011;745;48.586;10.032;2022-11-15T16:00:24;15.87;;;13.40;;
1507;SDS011;745;48.586;10.032;2022-11-15T16:04:55;12.60;;;10.47;;
1507;SDS011;745;48.586;10.032;2022-11-15T16:09:26;12.97;;;11.03;;
1507;SDS011;745;48.586;10.032;2022-11-15T16:14:15;11.93;;;10.60;;
1507;SDS011;745;48.586;10.032;2022-11-15T16:18:46;12.20;;;10.60;;
1507;SDS011;745;48.586;10.032;2022-11-15T16:23:17;11.00;;;9.80;;
1507;SDS011;745;48.586;10.032;2022-11-15T16:27:49;10.70;;;9.70;;
1507;SDS011;745;48.586;10.032;2022-11-15T16:32:20;9.50;;;8.47;;
1507;SDS011;745;48.586;10.032;2022-11-15T16:36:51;11.40;;;8.97;;
1507;SDS011;745;48.586;10.032;2022-11-15T16:41:22;12.57;;;9.83;;
1507;SDS011;745;48.586;10.032;2022-11-15T16:45:53;11.70;;;10.50;;
1507;SDS011;745;48.586;10.032;2022-11-15T16:50:27;8.80;;;7.90;;
1507;SDS011;745;48.586;10.032;2022-11-15T16:54:59;9.90;;;8.90;;
1507;SDS011;745;48.586;10.032;2022-11-15T16:59:30;11.73;;;9.47;;
1507;SDS011;745;48.586;10.032;2022-11-15T17:04:02;10.60;;;8.93;;
1507;SDS011;745;48.586;10.032;2022-11-15T17:08:41;11.17;;;8.93;;
1507;SDS011;745;48.586;10.032;2022-11-15T17:13:13;11.90;;;9.77;;
1507;SDS011;745;48.586;10.032;2022-11-15T17:17:44;10.57;;;9.47;;
1507;SDS011;745;48.586;10.032;2022-11-15T17:22:22;9.17;;;8.17;;
1507;SDS011;745;48.586;10.032;2022-11-15T17:26:52;9.47;;;8.47;;
1507;SDS011;745;48.586;10.032;2022-11-15T17:31:23;8.30;;;7.50;;
1507;SDS011;745;48.586;10.032;2022-11-15T17:35:55;10.17;;;9.17;;
1507;SDS011;745;48.586;10.032;2022-11-15T17:40:26;9.20;;;8.30;;
1507;SDS011;745;48.586;10.032;2022-11-15T17:44:57;9.23;;;8.00;;
1507;SDS011;745;48.586;10.032;2022-11-15T17:49:27;10.20;;;9.07;;
1507;SDS011;745;48.586;10.032;2022-11-15T17:53:58;8.83;;;7.80;;
1507;SDS011;745;48.586;10.032;2022-11-15T17:58:29;9.03;;;7.77;;
1507;SDS011;745;48.586;10.032;2022-11-15T18:03:00;7.80;;;7.00;;
1507;SDS011;745;48.586;10.032;2022-11-15T18:07:30;8.13;;;7.30;;
1507;SDS011;745;48.586;10.032;2022-11-15T18:12:01;8.50;;;7.47;;
1507;SDS011;745;48.586;10.032;2022-11-15T18:16:32;7.00;;;6.37;;
1507;SDS011;745;48.586;10.032;2022-11-15T18:21:04;6.33;;;5.70;;
1507;SDS011;745;48.586;10.032;2022-11-15T18:25:36;5.77;;;5.27;;
1507;SDS011;745;48.586;10.032;2022-11-15T18:30:07;7.90;;;7.10;;
1507;SDS011;745;48.586;10.032;2022-11-15T18:34:38;7.60;;;6.90;;
1507;SDS011;745;48.586;10.032;2022-11-15T18:39:09;8.03;;;7.30;;
1507;SDS011;745;48.586;10.032;2022-11-15T18:43:46;9.73;;;7.30;;
1507;SDS011;745;48.586;10.032;2022-11-15T18:48:19;8.57;;;7.70;;
1507;SDS011;745;48.586;10.032;2022-11-15T18:52:51;9.27;;;8.37;;
1507;SDS011;745;48.586;10.032;2022-11-15T18:57:23;9.13;;;8.30;;
1507;SDS011;745;48.586;10.032;2022-11-15T19:01:53;9.53;;;8.23;;
1507;SDS011;745;48.586;10.032;2022-11-15T19:06:27;10.23;;;8.33;;
1507;SDS011;745;48.586;10.032;2022-11-15T19:11:08;7.63;;;6.90;;
1507;SDS011;745;48.586;10.032;2022-11-15T19:15:42;8.77;;;7.90;;
1507;SDS011;745;48.586;10.032;2022-11-15T19:20:12;10.10;;;9.20;;
1507;SDS011;745;48.586;10.032;2022-11-15T19:24:49;10.87;;;9.70;;
1507;SDS011;745;48.586;10.032;2022-11-15T19:29:19;11.00;;;9.90;;
1507;SDS011;745;48.586;10.032;2022-11-15T19:33:51;12.47;;;10.90;;
1507;SDS011;745;48.586;10.032;2022-11-15T19:38:22;16.43;;;14.67;;
1507;SDS011;745;48.586;10.032;2022-11-15T19:42:52;14.77;;;12.00;;
1507;SDS011;745;48.586;10.032;2022-11-15T19:47:24;13.30;;;10.67;;
1507;SDS011;745;48.586;10.032;2022-11-15T19:51:55;13.60;;;11.70;;
1507;SDS011;745;48.586;10.032;2022-11-15T19:56:27;11.70;;;10.50;;
1507;SDS011;745;48.586;10.032;2022-11-15T20:01:02;10.63;;;9.33;;
1507;SDS011;745;48.586;10.032;2022-11-15T20:05:33;9.77;;;8.77;;
1507;SDS011;745;48.586;10.032;2022-11-15T20:10:03;9.00;;;8.10;;
1507;SDS011;745;48.586;10.032;2022-11-15T20:14:34;11.00;;;9.83;;
1507;SDS011;745;48.586;10.032;2022-11-15T20:19:05;10.83;;;9.70;;
1507;SDS011;745;48.586;10.032;2022-11-15T20:23:37;11.90;;;10.67;;
1507;SDS011;745;48.586;10.032;2022-11-15T20:28:09;11.63;;;10.43;;
1507;SDS011;745;48.586;10.032;2022-11-15T20:32:47;11.33;;;10.23;;
1507;SDS011;745;48.586;10.032;2022-11-15T20:37:18;11.70;;;10.37;;
1507;SDS011;745;48.586;10.032;2022-11-15T20:41:49;12.90;;;9.70;;
1507;SDS011;745;48.586;10.032;2022-11-15T20:46:19;9.30;;;8.40;;
1507;SDS011;745;48.586;10.032;2022-11-15T20:50:50;10.87;;;9.77;;
1507;SDS011;745;48.586;10.032;2022-11-15T20:55:23;9.67;;;8.67;;
1507;SDS011;745;48.586;10.032;2022-11-15T20:59:59;11.47;;;9.30;;
1507;SDS011;745;48.586;10.032;2022-11-15T21:04:30;9.00;;;7.97;;
1507;SDS011;745;48.586;10.032;2022-11-15T21:09:00;10.07;;;8.77;;
1507;SDS011;745;48.586;10.032;2022-11-15T21:13:50;11.83;;;9.70;;
1507;SDS011;745;48.586;10.032;2022-11-15T21:18:20;10.30;;;9.30;;
1507;SDS011;745;48.586;10.032;2022-11-15T21:22:50;12.00;;;10.80;;
1507;SDS011;745;48.586;10.032;2022-11-15T21:27:22;11.40;;;9.87;;
1507;SDS011;745;48.586;10.032;2022-11-15T21:31:54;9.07;;;8.17;;
1507;SDS011;745;48.586;10.032;2022-11-15T21:36:25;10.10;;;9.10;;
1507;SDS011;745;48.586;10.032;2022-11-15T21:40:56;9.30;;;8.40;;
1507;SDS011;745;48.586;10.032;2022-11-15T21:45:26;11.10;;;9.90;;
1507;SDS011;745;48.586;10.032;2022-11-15T21:49:56;8.60;;;7.80;;
1507;SDS011;745;48.586;10.032;2022-11-15T21:54:27;11.17;;;8.67;;
1507;SDS011;745;48.586;10.032;2022-11-15T21:58:57;8.30;;;7.50;;
1507;SDS011;745;48.586;10.032;2022-11-15T22:03:28;9.60;;;8.00;;
1507;SDS011;745;48.586;10.032;2022-11-15T22:07:59;9.93;;;8.37;;
1507;SDS011;745;48.586;10.032;2022-11-15T22:12:29;9.77;;;8.77;;
1507;SDS011;745;48.586;10.032;2022-11-15T22:17:00;10.70;;;9.57;;
1507;SDS011;745;48.586;10.032;2022-11-15T22:21:31;10.13;;;9.03;;
1507;SDS011;745;48.586;10.032;2022-11-15T22:26:03;12.20;;;10.90;;
1507;SDS011;745;48.586;10.032;2022-11-15T22:30:34;10.60;;;9.13;;
1507;SDS011;745;48.586;10.032;2022-11-15T22:35:05;10.07;;;9.00;;
1507;SDS011;745;48.586;10.032;2022-11-15T22:39:36;9.60;;;8.60;;
1507;SDS011;745;48.586;10.032;2022-11-15T22:44:07;8.33;;;7.53;;
1507;SDS011;745;48.586;10.032;2022-11-15T22:48:38;10.57;;;9.47;;
1507;SDS011;745;48.586;10.032;2022-11-15T22:53:09;11.50;;;10.23;;
1507;SDS011;745;48.586;10.032;2022-11-15T22:57:39;11.40;;;10.20;;
1507;SDS011;745;48.586;10.032;2022-11-15T23:02:09;9.73;;;8.77;;
1507;SDS011;745;48.586;10.032;2022-11-15T23:06:40;10.30;;;9.10;;
1507;SDS011;745;48.586;10.032;2022-11-15T23:11:10;9.27;;;8.33;;
1507;SDS011;745;48.586;10.032;2022-11-15T23:16:01;9.87;;;8.67;;
1507;SDS011;745;48.586;10.032;2022-11-15T23:20:54;13.03;;;10.40;;
1507;SDS011;745;48.586;10.032;2022-11-15T23:25:24;9.20;;;8.27;;
1507;SDS011;745;48.586;10.032;2022-11-15T23:29:55;9.80;;;8.90;;
1507;SDS011;745;48.586;10.032;2022-11-15T23:34:44;11.27;;;10.00;;
1507;SDS011;745;48.586;10.032;2022-11-15T23:39:15;13.20;;;10.47;;
1507;SDS011;745;48.586;10.032;2022-11-15T23:43:46;12.87;;;10.80;;
1507;SDS011;745;48.586;10.032;2022-11-15T23:48:17;12.93;;;10.73;;
1507;SDS011;745;48.586;10.032;2022-11-15T23:52:48;10.67;;;9.57;;
1507;SDS011;745;48.586;10.032;2022-11-15T23:57:18;11.20;;;9.50;;
